createdAt,value
2023-03-31T00:01:42.099Z,99246.83
2023-03-31T00:04:13.751Z,99248.78
2023-03-31T00:06:42.758Z,99248.98
2023-03-31T00:09:13.186Z,99248.02
2023-03-31T00:11:42.429Z,99242.79
2023-03-31T00:14:11.104Z,99245.63
2023-03-31T00:16:41.464Z,99241.58
2023-03-31T00:19:18.064Z,99241.11
2023-03-31T00:21:51.293Z,99244.86
2023-03-31T00:24:19.888Z,99243.16
2023-03-31T00:26:48.473Z,99239.25
2023-03-31T00:29:17.119Z,99239.29
2023-03-31T00:31:45.722Z,99240.64
2023-03-31T00:34:14.786Z,99244.35
2023-03-31T00:36:48.904Z,99240.27
2023-03-31T00:39:19.179Z,99242.63
2023-03-31T00:41:47.713Z,99242.13
2023-03-31T00:44:24.499Z,99245.84
2023-03-31T00:46:53.736Z,99246.77
2023-03-31T00:49:45.372Z,99246.87
2023-03-31T00:52:42.967Z,99250.20
2023-03-31T00:55:15.425Z,99249.72
2023-03-31T00:57:46.857Z,99246.70
2023-03-31T01:00:16.044Z,99248.41
2023-03-31T01:02:52.552Z,99252.17
2023-03-31T01:05:26.368Z,99252.25
2023-03-31T01:07:55.068Z,99254.62
2023-03-31T01:10:23.638Z,99256.30
2023-03-31T01:12:53.894Z,99253.38
2023-03-31T01:15:22.547Z,99255.69
2023-03-31T01:17:51.381Z,99252.05
2023-03-31T01:20:58.016Z,99257.04
2023-03-31T01:23:46.775Z,99256.44
2023-03-31T01:26:50.251Z,99260.63
2023-03-31T01:30:07.178Z,99259.06
2023-03-31T01:33:02.601Z,99260.83
2023-03-31T01:36:08.944Z,99264.73
2023-03-31T01:38:51.290Z,99265.86
2023-03-31T01:41:29.419Z,99269.02
2023-03-31T01:44:18.108Z,99269.01
2023-03-31T01:49:40.781Z,99267.45
2023-03-31T01:52:17.631Z,99269.92
2023-03-31T01:54:52.810Z,99270.17
2023-03-31T01:57:30.163Z,99267.19
2023-03-31T02:00:03.706Z,99269.79
2023-03-31T02:02:51.695Z,99265.84
2023-03-31T02:05:21.481Z,99265.96
2023-03-31T02:08:02.535Z,99267.84
2023-03-31T02:10:31.941Z,99272.04
2023-03-31T02:13:05.184Z,99276.68
2023-03-31T02:15:36.828Z,99275.72
2023-03-31T02:18:11.454Z,99279.23
2023-03-31T02:20:46.518Z,99279.81
2023-03-31T02:23:15.713Z,99281.08
2023-03-31T02:25:52.399Z,99280.98
2023-03-31T02:28:24.035Z,99281.94
2023-03-31T02:31:34.615Z,99283.19
2023-03-31T02:34:06.094Z,99288.61
2023-03-31T02:36:36.314Z,99286.65
2023-03-31T02:39:08.174Z,99289.71
2023-03-31T02:41:37.183Z,99291.95
2023-03-31T02:44:05.753Z,99294.43
2023-03-31T02:46:34.273Z,99294.48
2023-03-31T02:49:03.663Z,99297.40
2023-03-31T02:51:58.787Z,99295.80
2023-03-31T02:54:50.752Z,99297.48
2023-03-31T02:57:39.250Z,99294.41
2023-03-31T03:00:29.825Z,99293.90
2023-03-31T03:03:17.889Z,99289.37
2023-03-31T03:05:50.593Z,99293.66
2023-03-31T03:08:40.584Z,99292.60
2023-03-31T03:11:26.539Z,99292.05
2023-03-31T03:14:06.198Z,99294.25
2023-03-31T03:16:38.359Z,99297.60
2023-03-31T03:19:07.127Z,99298.64
2023-03-31T03:21:35.507Z,99297.41
2023-03-31T03:24:04.222Z,99295.36
2023-03-31T03:26:35.459Z,99296.98
2023-03-31T03:29:04.445Z,99297.91
2023-03-31T03:31:33.943Z,99299.79
2023-03-31T03:34:03.431Z,99301.01
2023-03-31T03:36:33.151Z,99300.46
2023-03-31T03:39:03.166Z,99299.73
2023-03-31T03:41:33.490Z,99296.23
2023-03-31T03:44:01.882Z,99296.56
2023-03-31T03:46:30.893Z,99300.28
2023-03-31T03:49:10.859Z,99303.71
2023-03-31T03:51:39.600Z,99304.69
2023-03-31T03:54:07.992Z,99303.16
2023-03-31T03:56:38.298Z,99301.27
2023-03-31T03:59:07.566Z,99306.58
2023-03-31T04:01:39.603Z,99303.06
2023-03-31T04:04:09.483Z,99307.54
2023-03-31T04:06:38.514Z,99304.91
2023-03-31T04:09:07.511Z,99310.48
2023-03-31T04:11:36.587Z,99311.69
2023-03-31T04:14:05.145Z,99312.17
2023-03-31T04:16:34.789Z,99312.13
2023-03-31T04:19:05.170Z,99315.23
2023-03-31T04:21:36.419Z,99319.81
2023-03-31T04:24:05.936Z,99310.86
2023-03-31T04:26:44.052Z,99307.63
2023-03-31T04:29:13.437Z,99311.67
2023-03-31T04:31:43.166Z,99307.28
2023-03-31T04:34:13.713Z,99307.71
2023-03-31T04:36:47.945Z,99310.04
2023-03-31T04:39:18.313Z,99312.41
2023-03-31T04:41:49.167Z,99313.80
2023-03-31T04:44:17.847Z,99312.83
2023-03-31T04:46:46.582Z,99318.27
2023-03-31T04:49:20.862Z,99322.14
2023-03-31T04:51:49.451Z,99321.55
2023-03-31T04:54:26.503Z,99322.70
2023-03-31T04:56:55.132Z,99318.56
2023-03-31T04:59:23.774Z,99318.45
2023-03-31T05:01:53.436Z,99312.86
2023-03-31T05:04:22.004Z,99312.66
2023-03-31T05:06:51.394Z,99315.00
2023-03-31T05:09:21.102Z,99311.49
2023-03-31T05:11:51.936Z,99314.94
2023-03-31T05:14:21.103Z,99315.44
2023-03-31T05:16:49.613Z,99316.67
2023-03-31T05:19:18.472Z,99315.73
2023-03-31T05:21:46.896Z,99312.41
2023-03-31T05:24:16.005Z,99309.20
2023-03-31T05:26:52.889Z,99310.20
2023-03-31T05:29:21.745Z,99311.80
2023-03-31T05:31:50.243Z,99312.05
2023-03-31T05:34:19.055Z,99311.46
2023-03-31T05:36:48.537Z,99311.02
2023-03-31T05:39:17.107Z,99312.31
2023-03-31T05:41:45.784Z,99314.76
2023-03-31T05:44:15.185Z,99317.48
2023-03-31T05:46:43.599Z,99316.08
2023-03-31T05:49:12.297Z,99318.85
2023-03-31T05:51:40.863Z,99315.84
2023-03-31T05:54:09.279Z,99321.29
2023-03-31T05:56:37.900Z,99328.64
2023-03-31T05:59:06.480Z,99330.43
2023-03-31T06:01:35.693Z,99328.75
2023-03-31T06:04:04.698Z,99332.38
2023-03-31T06:06:37.594Z,99334.00
2023-03-31T06:09:07.775Z,99333.23
2023-03-31T06:11:36.772Z,99332.73
2023-03-31T06:16:34.003Z,99325.06
2023-03-31T06:19:02.631Z,99322.27
2023-03-31T06:21:31.122Z,99319.91
2023-03-31T06:24:00.636Z,99320.38
2023-03-31T06:26:29.505Z,99318.00
2023-03-31T06:28:57.982Z,99313.98
2023-03-31T06:31:26.897Z,99307.68
2023-03-31T06:33:55.728Z,99303.74
2023-03-31T06:36:24.605Z,99300.41
2023-03-31T06:38:52.978Z,99296.42
2023-03-31T06:41:22.679Z,99298.63
2023-03-31T06:43:51.452Z,99302.19
2023-03-31T06:46:20.032Z,99302.52
2023-03-31T06:48:49.722Z,99298.84
2023-03-31T06:51:21.033Z,99297.61
2023-03-31T06:53:49.769Z,99297.89
2023-03-31T06:56:18.713Z,99294.98
2023-03-31T06:58:48.457Z,99296.91
2023-03-31T07:01:17.173Z,99295.23
2023-03-31T07:03:48.041Z,99297.48
2023-03-31T07:06:17.086Z,99299.65
2023-03-31T07:08:46.193Z,99305.34
2023-03-31T07:11:14.868Z,99301.50
2023-03-31T07:13:43.654Z,99300.73
2023-03-31T07:16:14.415Z,99293.79
2023-03-31T07:18:43.578Z,99296.85
2023-03-31T07:21:13.074Z,99298.61
2023-03-31T07:23:42.157Z,99305.39
2023-03-31T07:26:11.711Z,99306.95
2023-03-31T07:28:40.828Z,99309.02
2023-03-31T07:31:13.558Z,99308.30
2023-03-31T07:33:42.024Z,99310.52
2023-03-31T07:36:13.794Z,99312.90
2023-03-31T07:38:47.101Z,99316.30
2023-03-31T07:41:18.336Z,99321.10
2023-03-31T07:43:46.746Z,99326.97
2023-03-31T07:46:26.685Z,99329.36
2023-03-31T07:48:55.980Z,99332.38
2023-03-31T07:51:26.465Z,99331.07
2023-03-31T07:53:55.697Z,99328.02
2023-03-31T07:56:25.240Z,99329.41
2023-03-31T07:58:57.340Z,99339.33
2023-03-31T08:01:29.045Z,99339.86
2023-03-31T08:03:59.377Z,99331.37
2023-03-31T08:06:29.282Z,99334.92
2023-03-31T08:08:58.158Z,99331.15
2023-03-31T08:11:26.757Z,99330.59
2023-03-31T08:13:55.802Z,99332.54
2023-03-31T08:16:24.582Z,99334.62
2023-03-31T08:18:54.574Z,99338.20
2023-03-31T08:21:24.522Z,99341.83
2023-03-31T08:24:01.594Z,99346.31
2023-03-31T08:26:33.129Z,99351.77
2023-03-31T08:29:01.595Z,99354.42
2023-03-31T08:31:30.808Z,99349.94
2023-03-31T08:33:59.458Z,99349.36
2023-03-31T08:36:30.909Z,99352.99
2023-03-31T08:38:59.798Z,99346.73
2023-03-31T08:41:44.488Z,99346.70
2023-03-31T08:44:37.611Z,99344.91
2023-03-31T08:47:08.050Z,99342.11
2023-03-31T08:49:42.715Z,99341.69
2023-03-31T08:52:16.398Z,99340.95
2023-03-31T08:54:47.414Z,99338.25
2023-03-31T08:57:25.637Z,99337.91
2023-03-31T08:59:58.541Z,99338.90
2023-03-31T09:02:49.702Z,99343.20
2023-03-31T09:05:43.354Z,99343.25
2023-03-31T09:08:17.708Z,99339.98
2023-03-31T09:10:57.248Z,99337.71
2023-03-31T09:13:35.057Z,99332.99
2023-03-31T09:16:05.211Z,99342.33
2023-03-31T09:18:37.565Z,99347.23
2023-03-31T09:21:12.808Z,99347.21
2023-03-31T09:23:45.051Z,99354.63
2023-03-31T09:26:26.788Z,99356.73
2023-03-31T09:28:57.796Z,99363.29
2023-03-31T09:31:26.313Z,99369.25
2023-03-31T09:33:59.857Z,99361.57
2023-03-31T09:36:28.982Z,99366.63
2023-03-31T09:38:59.191Z,99365.41
2023-03-31T09:41:27.771Z,99366.23
2023-03-31T09:43:56.716Z,99358.56
2023-03-31T09:46:35.572Z,99363.98
2023-03-31T09:49:11.873Z,99373.10
2023-03-31T09:51:42.874Z,99369.80
2023-03-31T09:54:22.355Z,99371.06
2023-03-31T09:56:54.033Z,99368.21
2023-03-31T09:59:35.172Z,99373.57
2023-03-31T10:02:21.982Z,99371.95
2023-03-31T10:04:51.157Z,99369.55
2023-03-31T10:07:23.535Z,99372.37
2023-03-31T10:09:54.168Z,99364.56
2023-03-31T10:12:24.620Z,99375.30
2023-03-31T10:14:54.832Z,99378.27
2023-03-31T10:17:24.370Z,99377.71
2023-03-31T10:19:58.201Z,99379.95
2023-03-31T10:22:31.221Z,99377.31
2023-03-31T10:25:11.073Z,99375.80
2023-03-31T10:27:48.307Z,99377.88
2023-03-31T10:30:21.384Z,99374.46
2023-03-31T10:32:52.517Z,99376.11
2023-03-31T10:35:35.614Z,99378.88
2023-03-31T10:38:11.029Z,99381.31
2023-03-31T10:40:40.814Z,99387.30
2023-03-31T10:43:17.092Z,99393.88
2023-03-31T10:45:49.559Z,99395.52
2023-03-31T10:48:31.592Z,99396.03
2023-03-31T10:51:28.975Z,99400.88
2023-03-31T10:54:04.004Z,99397.52
2023-03-31T10:57:03.545Z,99399.38
2023-03-31T10:59:41.453Z,99397.20
2023-03-31T11:02:41.405Z,99395.36
2023-03-31T11:05:16.027Z,99396.02
2023-03-31T11:08:00.167Z,99392.67
2023-03-31T11:11:09.742Z,99395.16
2023-03-31T11:13:44.212Z,99393.15
2023-03-31T11:16:34.198Z,99388.85
2023-03-31T11:19:21.805Z,99390.95
2023-03-31T11:22:10.125Z,99395.31
2023-03-31T11:24:47.672Z,99390.96
2023-03-31T11:27:38.228Z,99388.56
2023-03-31T11:30:29.253Z,99392.80
2023-03-31T11:33:04.476Z,99393.75
2023-03-31T11:35:48.153Z,99395.26
2023-03-31T11:38:36.145Z,99397.55
2023-03-31T11:41:34.529Z,99406.70
2023-03-31T11:44:05.783Z,99407.64
2023-03-31T11:46:51.652Z,99405.83
2023-03-31T11:49:25.204Z,99401.56
2023-03-31T11:52:00.045Z,99405.63
2023-03-31T11:54:32.818Z,99401.64
2023-03-31T11:57:13.698Z,99399.81
2023-03-31T11:59:42.952Z,99400.77
2023-03-31T12:02:18.474Z,99400.93
2023-03-31T12:04:49.804Z,99397.83
2023-03-31T12:07:24.267Z,99400.91
2023-03-31T12:10:21.881Z,99401.69
2023-03-31T12:13:02.554Z,99401.41
2023-03-31T12:15:42.152Z,99402.04
2023-03-31T12:18:15.131Z,99398.78
2023-03-31T12:21:00.107Z,99398.60
2023-03-31T12:23:30.479Z,99404.84
2023-03-31T12:26:03.951Z,99406.41
2023-03-31T12:28:37.560Z,99406.30
2023-03-31T12:31:06.710Z,99401.38
2023-03-31T12:33:42.852Z,99396.60
2023-03-31T12:36:22.157Z,99390.02
2023-03-31T12:38:58.898Z,99389.95
2023-03-31T12:41:39.523Z,99391.04
2023-03-31T12:44:35.994Z,99389.42
2023-03-31T12:47:18.704Z,99389.33
2023-03-31T12:50:10.052Z,99392.70
2023-03-31T12:52:47.436Z,99390.36
2023-03-31T12:55:39.553Z,99394.79
2023-03-31T12:58:34.298Z,99393.30
2023-03-31T13:01:16.398Z,99391.36
2023-03-31T13:04:17.692Z,99391.88
2023-03-31T13:06:50.789Z,99391.02
2023-03-31T13:09:45.076Z,99394.33
2023-03-31T13:12:21.968Z,99392.14
2023-03-31T13:14:54.656Z,99395.02
2023-03-31T13:17:59.836Z,99395.85
2023-03-31T13:20:38.501Z,99390.82
2023-03-31T13:23:23.191Z,99394.45
2023-03-31T13:25:56.181Z,99393.92
2023-03-31T13:28:39.157Z,99394.45
2023-03-31T13:31:09.588Z,99394.81
2023-03-31T13:34:07.585Z,99393.24
2023-03-31T13:36:48.948Z,99395.13
2023-03-31T13:39:41.848Z,99393.81
2023-03-31T13:42:22.665Z,99399.53
2023-03-31T13:45:14.342Z,99402.30
2023-03-31T13:47:54.679Z,99401.80
2023-03-31T13:50:33.208Z,99404.98
2023-03-31T13:53:08.427Z,99408.63
2023-03-31T13:56:01.571Z,99411.77
2023-03-31T13:58:45.611Z,99417.75
2023-03-31T14:01:36.363Z,99418.89
2023-03-31T14:04:23.798Z,99426.34
2023-03-31T14:06:58.459Z,99425.48
2023-03-31T14:09:32.985Z,99432.72
2023-03-31T14:12:01.756Z,99431.44
2023-03-31T14:14:30.664Z,99430.15
2023-03-31T14:17:02.224Z,99429.69
2023-03-31T14:19:59.239Z,99431.20
2023-03-31T14:22:57.853Z,99432.65
2023-03-31T14:25:45.180Z,99433.93
2023-03-31T14:28:54.417Z,99437.50
2023-03-31T14:31:26.805Z,99435.72
2023-03-31T14:34:14.528Z,99445.57
2023-03-31T14:37:08.333Z,99447.05
2023-03-31T14:39:40.739Z,99447.57
2023-03-31T14:42:17.119Z,99451.06
2023-03-31T14:44:47.162Z,99451.68
2023-03-31T14:47:29.404Z,99450.16
2023-03-31T14:50:13.622Z,99452.71
2023-03-31T14:52:50.081Z,99457.12
2023-03-31T14:55:22.570Z,99460.27
2023-03-31T14:57:53.666Z,99459.56
2023-03-31T15:00:30.744Z,99461.27
2023-03-31T15:03:19.054Z,99463.42
2023-03-31T15:05:49.831Z,99466.06
2023-03-31T15:08:20.814Z,99468.13
2023-03-31T15:10:58.836Z,99468.48
2023-03-31T15:13:37.360Z,99475.20
2023-03-31T15:16:28.609Z,99473.30
2023-03-31T15:19:06.548Z,99473.77
2023-03-31T15:21:37.692Z,99472.09
2023-03-31T15:24:06.576Z,99476.08
2023-03-31T15:26:44.920Z,99477.44
2023-03-31T15:29:19.744Z,99471.97
2023-03-31T15:31:48.480Z,99475.33
2023-03-31T15:34:27.326Z,99482.32
2023-03-31T15:36:56.717Z,99485.40
2023-03-31T15:39:26.520Z,99488.91
2023-03-31T15:41:54.920Z,99495.55
2023-03-31T15:44:26.679Z,99496.27
2023-03-31T15:47:02.804Z,99501.16
2023-03-31T15:49:31.624Z,99503.80
2023-03-31T15:52:01.643Z,99506.73
2023-03-31T15:54:36.077Z,99507.21
2023-03-31T15:57:05.768Z,99508.90
2023-03-31T16:02:44.253Z,99514.19
2023-03-31T16:05:43.707Z,99517.67
2023-03-31T16:08:38.850Z,99517.48
2023-03-31T16:11:13.625Z,99522.14
2023-03-31T16:13:44.610Z,99524.11
2023-03-31T16:16:15.464Z,99530.33
2023-03-31T16:18:47.178Z,99533.15
2023-03-31T16:21:24.760Z,99530.75
2023-03-31T16:23:54.344Z,99536.77
2023-03-31T16:26:28.706Z,99536.11
2023-03-31T16:28:57.977Z,99540.05
2023-03-31T16:31:31.444Z,99542.86
2023-03-31T16:34:04.093Z,99544.88
2023-03-31T16:36:32.653Z,99547.19
2023-03-31T16:39:05.060Z,99544.48
2023-03-31T16:41:35.303Z,99545.45
2023-03-31T16:44:04.443Z,99548.04
2023-03-31T16:46:33.241Z,99563.02
2023-03-31T16:49:02.169Z,99566.27
2023-03-31T16:51:31.952Z,99566.39
2023-03-31T16:54:01.739Z,99563.02
2023-03-31T16:56:31.232Z,99568.80
2023-03-31T16:59:00.163Z,99568.05
2023-03-31T17:01:28.545Z,99575.24
2023-03-31T17:03:57.191Z,99576.02
2023-03-31T17:06:25.766Z,99580.66
2023-03-31T17:08:54.269Z,99583.70
2023-03-31T17:11:22.984Z,99580.36
2023-03-31T17:13:51.456Z,99580.27
2023-03-31T17:16:26.993Z,99583.79
2023-03-31T17:19:04.926Z,99589.35
2023-03-31T17:21:33.498Z,99591.27
2023-03-31T17:24:03.288Z,99594.13
2023-03-31T17:26:32.703Z,99601.56
2023-03-31T17:29:01.396Z,99606.55
2023-03-31T17:31:31.338Z,99609.40
2023-03-31T17:33:59.991Z,99612.71
2023-03-31T17:36:31.347Z,99613.01
2023-03-31T17:39:00.563Z,99616.95
2023-03-31T17:41:30.158Z,99614.40
2023-03-31T17:43:59.037Z,99615.52
2023-03-31T17:46:27.712Z,99612.61
2023-03-31T17:48:59.274Z,99609.75
2023-03-31T17:51:28.969Z,99617.91
2023-03-31T17:53:57.698Z,99624.75
2023-03-31T17:56:28.666Z,99616.69
2023-03-31T17:58:57.709Z,99614.33
2023-03-31T18:01:26.213Z,99618.61
2023-03-31T18:03:57.888Z,99616.26
2023-03-31T18:06:27.959Z,99619.98
2023-03-31T18:08:57.180Z,99621.36
2023-03-31T18:11:26.883Z,99616.86
2023-03-31T18:13:56.607Z,99628.41
2023-03-31T18:16:25.327Z,99632.84
2023-03-31T18:18:54.148Z,99630.20
2023-03-31T18:21:27.340Z,99638.46
2023-03-31T18:23:55.691Z,99649.48
2023-03-31T18:26:25.152Z,99650.73
2023-03-31T18:28:55.652Z,99650.52
2023-03-31T18:31:27.118Z,99651.85
2023-03-31T18:33:55.733Z,99643.30
2023-03-31T18:36:24.510Z,99636.91
2023-03-31T18:38:53.726Z,99637.57
2023-03-31T18:41:23.281Z,99641.30
2023-03-31T18:43:53.098Z,99643.23
2023-03-31T18:46:21.829Z,99649.88
2023-03-31T18:48:51.591Z,99645.54
2023-03-31T18:51:20.387Z,99649.22
2023-03-31T18:53:50.709Z,99646.15
2023-03-31T18:56:19.699Z,99645.36
2023-03-31T18:58:52.001Z,99646.59
2023-03-31T19:01:21.050Z,99644.45
2023-03-31T19:03:50.782Z,99638.86
2023-03-31T19:06:22.650Z,99636.02
2023-03-31T19:08:52.256Z,99635.52
2023-03-31T19:11:20.838Z,99636.20
2023-03-31T19:13:49.852Z,99633.50
2023-03-31T19:16:42.557Z,99638.74
2023-03-31T19:19:12.929Z,99636.63
2023-03-31T19:21:42.924Z,99638.37
2023-03-31T19:24:12.102Z,99639.98
2023-03-31T19:26:42.243Z,99642.20
2023-03-31T19:29:11.536Z,99636.73
2023-03-31T19:31:41.777Z,99638.96
2023-03-31T19:34:11.845Z,99640.14
2023-03-31T19:36:40.572Z,99637.04
2023-03-31T19:39:09.669Z,99635.73
2023-03-31T19:41:39.057Z,99637.52
2023-03-31T19:44:07.539Z,99638.34
2023-03-31T19:46:36.479Z,99642.12
2023-03-31T19:49:05.235Z,99638.31
2023-03-31T19:51:34.565Z,99637.64
2023-03-31T19:54:03.127Z,99636.88
2023-03-31T19:56:33.679Z,99635.70
2023-03-31T19:59:02.889Z,99637.35
2023-03-31T20:01:32.100Z,99635.90
2023-03-31T20:04:06.473Z,99640.40
2023-03-31T20:06:35.143Z,99642.39
2023-03-31T20:09:06.431Z,99644.16
2023-03-31T20:11:35.767Z,99646.24
2023-03-31T20:14:04.473Z,99648.31
2023-03-31T20:16:34.667Z,99647.42
2023-03-31T20:19:05.537Z,99648.27
2023-03-31T20:21:36.743Z,99652.88
2023-03-31T20:24:06.281Z,99651.63
2023-03-31T20:26:36.369Z,99652.56
2023-03-31T20:29:04.883Z,99653.99
2023-03-31T20:31:39.288Z,99653.42
2023-03-31T20:34:12.730Z,99659.08
2023-03-31T20:36:42.472Z,99658.73
2023-03-31T20:39:12.114Z,99659.56
2023-03-31T20:41:40.696Z,99658.26
2023-03-31T20:44:15.547Z,99661.29
2023-03-31T20:46:44.804Z,99661.60
2023-03-31T20:49:13.421Z,99655.48
2023-03-31T20:51:42.707Z,99656.73
2023-03-31T20:54:12.219Z,99657.79
2023-03-31T20:56:41.629Z,99664.10
2023-03-31T20:59:13.175Z,99669.17
2023-03-31T21:01:58.652Z,99674.55
2023-03-31T21:04:28.120Z,99672.77
2023-03-31T21:06:56.618Z,99675.04
2023-03-31T21:09:25.608Z,99681.09
2023-03-31T21:11:55.454Z,99684.47
2023-03-31T21:14:24.094Z,99687.67
2023-03-31T21:16:52.495Z,99685.80
2023-03-31T21:19:21.774Z,99687.80
2023-03-31T21:21:50.177Z,99692.00
2023-03-31T21:24:18.636Z,99695.17
2023-03-31T21:26:47.150Z,99697.40
2023-03-31T21:29:16.498Z,99692.86
2023-03-31T21:31:46.561Z,99696.15
2023-03-31T21:34:16.186Z,99694.59
2023-03-31T21:36:45.043Z,99697.15
2023-03-31T21:39:13.522Z,99697.44
2023-03-31T21:41:42.577Z,99699.37
2023-03-31T21:44:11.097Z,99701.27
2023-03-31T21:46:39.832Z,99703.13
2023-03-31T21:49:08.588Z,99701.42
2023-03-31T21:51:37.205Z,99700.22
2023-03-31T21:54:07.149Z,99699.08
2023-03-31T21:56:35.762Z,99698.91
2023-03-31T21:59:04.961Z,99694.17
2023-03-31T22:01:34.433Z,99692.37
2023-03-31T22:04:04.881Z,99691.55
2023-03-31T22:06:34.678Z,99689.46
2023-03-31T22:09:03.686Z,99685.95
2023-03-31T22:11:32.585Z,99688.28
2023-03-31T22:14:02.829Z,99691.76
2023-03-31T22:16:32.134Z,99690.34
2023-03-31T22:19:01.572Z,99693.65
2023-03-31T22:21:43.756Z,99699.83
2023-03-31T22:24:13.946Z,99696.33
2023-03-31T22:26:42.971Z,99701.70
2023-03-31T22:29:15.303Z,99707.23
2023-03-31T22:31:44.846Z,99712.05
2023-03-31T22:34:13.560Z,99708.45
2023-03-31T22:36:42.528Z,99711.02
2023-03-31T22:39:11.332Z,99712.46
2023-03-31T22:41:39.946Z,99710.02
2023-03-31T22:44:08.939Z,99710.48
2023-03-31T22:46:40.811Z,99715.23
2023-03-31T22:49:09.710Z,99718.70
2023-03-31T22:51:40.734Z,99724.20
2023-03-31T22:54:15.135Z,99719.41
2023-03-31T22:56:44.332Z,99717.40
2023-03-31T22:59:12.743Z,99718.39
2023-03-31T23:01:42.131Z,99725.25
2023-03-31T23:04:10.894Z,99728.98
2023-03-31T23:06:39.431Z,99726.64
2023-03-31T23:09:08.264Z,99732.30
2023-03-31T23:11:37.495Z,99728.09
2023-03-31T23:14:06.278Z,99735.81
2023-03-31T23:16:35.397Z,99746.86
2023-03-31T23:19:03.782Z,99744.35
2023-03-31T23:21:32.864Z,99745.05
2023-03-31T23:24:02.072Z,99745.34
2023-03-31T23:26:32.730Z,99745.05
2023-03-31T23:29:02.630Z,99746.74
2023-03-31T23:31:32.468Z,99745.90
2023-03-31T23:34:01.305Z,99749.89
2023-03-31T23:36:31.325Z,99752.59
2023-03-31T23:39:00.799Z,99753.52
2023-03-31T23:41:30.630Z,99754.04
2023-03-31T23:44:00.051Z,99750.27
2023-03-31T23:46:32.102Z,99752.36
2023-03-31T23:49:02.970Z,99745.45
2023-03-31T23:51:31.968Z,99741.13
2023-03-31T23:54:00.771Z,99740.52
2023-03-31T23:56:32.167Z,99735.58
2023-03-31T23:59:01.269Z,99735.23
